Costa Magica — IBQQ — position and weather

sailwx.info

Track history (hours):
 
Tides and Currents Weather Stations Pressure Air Temp Water Temp Dewpoint Dewpoint Depression Visibility Wind Speed Wind Dir Waves Ship Positions

Costa Magica

Last reported at 2020-Jan-11 15:59 UTC. Time now 2020-Jan-19 17:17 UTC.
Position N 14°26' W 061°15'.
Warning: this ship's position is 8 days out of date.

Type: Ship. MMSI: 247113300.

Date/timePositionNaut miles runAvg speedWind from/ knotsBaromVisibWave heightAir tempDewpointWater temp
2020-Jan-11 15:59N 14°26' W 061°15'10 0.3
2020-Jan-10 01:29N 14°35' W 061°12'611.8
2020-Jan-10 01:01N 14°35' W 061°06'3 0.4
2020-Jan-09 18:58N 14°36' W 061°04'0 0.0
2020-Jan-09 17:28N 14°36' W 061°04'0 0.0
2020-Jan-09 14:28N 14°36' W 061°04'  
2020-Jan-07 00:55N 17°46' W 062°51'511.1
2020-Jan-07 00:30N 17°49' W 062°55'511.1
2020-Jan-07 00:02N 17°51' W 062°59'010.2
2020-Jan-07 00:00N 17°51' W 062°60'111.6
2020-Jan-06 23:55N 17°52' W 063°01'9 9.4
2020-Jan-06 22:56N 17°60' W 063°05'2 7.6
2020-Jan-06 22:40N 18°00' W 063°03'1 0.3
2020-Jan-06 20:57N 18°01' W 063°03'0 0.0
2020-Jan-06 19:30N 18°01' W 063°03'0 0.0
2020-Jan-06 19:00N 18°01' W 063°03'0 0.0
2020-Jan-06 16:30N 18°01' W 063°03'0 0.0
2020-Jan-06 16:00N 18°01' W 063°03'0 0.0
2020-Jan-06 14:51N 18°01' W 063°03'0 0.0
2020-Jan-06 12:51N 18°01' W 063°03'0 0.0
2020-Jan-06 12:24N 18°01' W 063°03'8 2.6
2020-Jan-06 09:14N 18°00' W 063°12'412.0
2020-Jan-06 08:55N 18°00' W 063°16'1610.3
2020-Jan-06 07:24N 18°08' W 063°30'62 7.5
2020-Jan-05 23:12N 18°23' W 064°33'47 2.7
2020-Jan-05 05:50N 18°05' W 063°47'411.4
2020-Jan-05 05:27N 18°03' W 063°43'69 9.9
2020-Jan-04 22:29N 17°04' W 063°06'22 9.7
2020-Jan-04 20:11N 16°55' W 063°28'196 4.1
2020-Jan-02 19:55N 14°36' W 061°04'8 0.8
2020-Jan-02 10:23N 14°36' W 061°12'  
Track history (hours):
 
Tides and Currents Weather Stations Pressure Air Temp Water Temp Dewpoint Dewpoint Depression Visibility Wind Speed Wind Dir Waves Ship Positions

Costa Magica

Last reported at 2020-Jan-11 15:59 UTC. Time now 2020-Jan-19 17:17 UTC.
Position N 14°26' W 061°15'.
Warning: this ship's position is 8 days out of date.

Type: Ship. MMSI: 247113300.

Date/timePositionNaut miles runAvg speedWind from/ knotsBaromVisibWave heightAir tempDewpointWater temp
2020-Jan-11 15:59N 14°26' W 061°15'10 0.3
2020-Jan-10 01:29N 14°35' W 061°12'611.8
2020-Jan-10 01:01N 14°35' W 061°06'3 0.4
2020-Jan-09 18:58N 14°36' W 061°04'0 0.0
2020-Jan-09 17:28N 14°36' W 061°04'0 0.0
2020-Jan-09 14:28N 14°36' W 061°04'  
2020-Jan-07 00:55N 17°46' W 062°51'511.1
2020-Jan-07 00:30N 17°49' W 062°55'511.1
2020-Jan-07 00:02N 17°51' W 062°59'010.2
2020-Jan-07 00:00N 17°51' W 062°60'111.6
2020-Jan-06 23:55N 17°52' W 063°01'9 9.4
2020-Jan-06 22:56N 17°60' W 063°05'2 7.6
2020-Jan-06 22:40N 18°00' W 063°03'1 0.3
2020-Jan-06 20:57N 18°01' W 063°03'0 0.0
2020-Jan-06 19:30N 18°01' W 063°03'0 0.0
2020-Jan-06 19:00N 18°01' W 063°03'0 0.0
2020-Jan-06 16:30N 18°01' W 063°03'0 0.0
2020-Jan-06 16:00N 18°01' W 063°03'0 0.0
2020-Jan-06 14:51N 18°01' W 063°03'0 0.0
2020-Jan-06 12:51N 18°01' W 063°03'0 0.0
2020-Jan-06 12:24N 18°01' W 063°03'8 2.6
2020-Jan-06 09:14N 18°00' W 063°12'412.0
2020-Jan-06 08:55N 18°00' W 063°16'1610.3
2020-Jan-06 07:24N 18°08' W 063°30'62 7.5
2020-Jan-05 23:12N 18°23' W 064°33'47 2.7
2020-Jan-05 05:50N 18°05' W 063°47'411.4
2020-Jan-05 05:27N 18°03' W 063°43'69 9.9
2020-Jan-04 22:29N 17°04' W 063°06'22 9.7
2020-Jan-04 20:11N 16°55' W 063°28'196 4.1
2020-Jan-02 19:55N 14°36' W 061°04'8 0.8
2020-Jan-02 10:23N 14°36' W 061°12'  

Dump ship's entire track history